sensor_id;sensor_type;location;lat;lon;timestamp;P1;durP1;ratioP1;P2;durP2;ratioP2
9424;SDS011;17139;52.140;11.636;2024-02-14T00:00:12;1.90;;;1.60;;
9424;SDS011;17139;52.140;11.636;2024-02-14T00:03:00;2.00;;;1.90;;
9424;SDS011;17139;52.140;11.636;2024-02-14T00:05:46;2.20;;;1.40;;
9424;SDS011;17139;52.140;11.636;2024-02-14T00:08:32;4.57;;;2.10;;
9424;SDS011;17139;52.140;11.636;2024-02-14T00:11:18;1.90;;;1.80;;
9424;SDS011;17139;52.140;11.636;2024-02-14T00:14:04;1.60;;;1.50;;
9424;SDS011;17139;52.140;11.636;2024-02-14T00:16:50;2.37;;;1.77;;
9424;SDS011;17139;52.140;11.636;2024-02-14T00:19:38;2.27;;;2.07;;
9424;SDS011;17139;52.140;11.636;2024-02-14T00:22:24;3.27;;;1.67;;
9424;SDS011;17139;52.140;11.636;2024-02-14T00:25:10;1.83;;;1.73;;
9424;SDS011;17139;52.140;11.636;2024-02-14T00:27:56;1.93;;;1.73;;
9424;SDS011;17139;52.140;11.636;2024-02-14T00:30:42;2.40;;;2.20;;
9424;SDS011;17139;52.140;11.636;2024-02-14T00:33:29;2.13;;;2.03;;
9424;SDS011;17139;52.140;11.636;2024-02-14T00:36:16;2.00;;;1.90;;
9424;SDS011;17139;52.140;11.636;2024-02-14T00:39:02;2.20;;;2.10;;
9424;SDS011;17139;52.140;11.636;2024-02-14T00:41:48;1.97;;;1.87;;
9424;SDS011;17139;52.140;11.636;2024-02-14T00:44:34;1.63;;;1.63;;
9424;SDS011;17139;52.140;11.636;2024-02-14T00:47:20;2.03;;;1.93;;
9424;SDS011;17139;52.140;11.636;2024-02-14T00:50:07;1.97;;;1.80;;
9424;SDS011;17139;52.140;11.636;2024-02-14T00:52:55;1.83;;;1.83;;
9424;SDS011;17139;52.140;11.636;2024-02-14T00:55:41;2.20;;;2.10;;
9424;SDS011;17139;52.140;11.636;2024-02-14T00:58:27;1.90;;;1.87;;
9424;SDS011;17139;52.140;11.636;2024-02-14T01:01:13;3.70;;;1.97;;
9424;SDS011;17139;52.140;11.636;2024-02-14T01:03:59;2.23;;;2.13;;
9424;SDS011;17139;52.140;11.636;2024-02-14T01:06:45;3.53;;;1.80;;
9424;SDS011;17139;52.140;11.636;2024-02-14T01:09:33;2.20;;;2.10;;
9424;SDS011;17139;52.140;11.636;2024-02-14T01:12:19;1.33;;;1.33;;
9424;SDS011;17139;52.140;11.636;2024-02-14T01:15:05;1.90;;;1.80;;
9424;SDS011;17139;52.140;11.636;2024-02-14T01:17:52;1.90;;;1.80;;
9424;SDS011;17139;52.140;11.636;2024-02-14T01:20:38;2.13;;;2.03;;
9424;SDS011;17139;52.140;11.636;2024-02-14T01:23:24;2.63;;;2.37;;
9424;SDS011;17139;52.140;11.636;2024-02-14T01:26:12;2.13;;;2.03;;
9424;SDS011;17139;52.140;11.636;2024-02-14T01:28:58;2.45;;;2.30;;
9424;SDS011;17139;52.140;11.636;2024-02-14T01:31:44;2.23;;;2.10;;
9424;SDS011;17139;52.140;11.636;2024-02-14T01:34:30;1.70;;;1.70;;
9424;SDS011;17139;52.140;11.636;2024-02-14T01:37:16;2.10;;;2.00;;
9424;SDS011;17139;52.140;11.636;2024-02-14T01:40:02;2.10;;;2.00;;
9424;SDS011;17139;52.140;11.636;2024-02-14T01:42:50;1.80;;;1.70;;
9424;SDS011;17139;52.140;11.636;2024-02-14T01:45:37;1.83;;;1.83;;
9424;SDS011;17139;52.140;11.636;2024-02-14T01:48:23;2.10;;;2.00;;
9424;SDS011;17139;52.140;11.636;2024-02-14T01:51:11;2.07;;;1.90;;
9424;SDS011;17139;52.140;11.636;2024-02-14T01:53:58;2.03;;;1.93;;
9424;SDS011;17139;52.140;11.636;2024-02-14T01:56:45;1.90;;;1.80;;
9424;SDS011;17139;52.140;11.636;2024-02-14T01:59:32;2.20;;;2.10;;
9424;SDS011;17139;52.140;11.636;2024-02-14T02:02:19;2.10;;;2.00;;
9424;SDS011;17139;52.140;11.636;2024-02-14T02:05:05;2.13;;;2.03;;
9424;SDS011;17139;52.140;11.636;2024-02-14T02:07:52;1.67;;;1.67;;
9424;SDS011;17139;52.140;11.636;2024-02-14T02:10:38;2.07;;;1.97;;
9424;SDS011;17139;52.140;11.636;2024-02-14T02:13:24;1.90;;;1.80;;
9424;SDS011;17139;52.140;11.636;2024-02-14T02:16:11;1.70;;;1.70;;
9424;SDS011;17139;52.140;11.636;2024-02-14T02:18:58;2.03;;;1.92;;
9424;SDS011;17139;52.140;11.636;2024-02-14T02:21:44;4.90;;;2.10;;
9424;SDS011;17139;52.140;11.636;2024-02-14T02:24:31;2.30;;;1.90;;
9424;SDS011;17139;52.140;11.636;2024-02-14T02:27:17;2.30;;;1.97;;
9424;SDS011;17139;52.140;11.636;2024-02-14T02:30:04;2.00;;;1.90;;
9424;SDS011;17139;52.140;11.636;2024-02-14T02:32:51;2.03;;;1.93;;
9424;SDS011;17139;52.140;11.636;2024-02-14T02:35:37;2.07;;;1.93;;
9424;SDS011;17139;52.140;11.636;2024-02-14T02:38:25;2.13;;;2.00;;
9424;SDS011;17139;52.140;11.636;2024-02-14T02:41:12;2.00;;;1.90;;
9424;SDS011;17139;52.140;11.636;2024-02-14T02:43:58;1.63;;;1.63;;
9424;SDS011;17139;52.140;11.636;2024-02-14T02:46:44;2.10;;;2.00;;
9424;SDS011;17139;52.140;11.636;2024-02-14T02:49:30;2.17;;;1.93;;
9424;SDS011;17139;52.140;11.636;2024-02-14T02:52:17;2.27;;;2.10;;
9424;SDS011;17139;52.140;11.636;2024-02-14T02:55:03;2.47;;;2.27;;
9424;SDS011;17139;52.140;11.636;2024-02-14T02:57:51;2.20;;;2.10;;
9424;SDS011;17139;52.140;11.636;2024-02-14T03:00:37;2.20;;;2.10;;
9424;SDS011;17139;52.140;11.636;2024-02-14T03:03:23;3.97;;;2.27;;
9424;SDS011;17139;52.140;11.636;2024-02-14T03:06:09;3.17;;;1.90;;
9424;SDS011;17139;52.140;11.636;2024-02-14T03:08:55;2.67;;;2.47;;
9424;SDS011;17139;52.140;11.636;2024-02-14T03:11:41;2.70;;;2.50;;
9424;SDS011;17139;52.140;11.636;2024-02-14T03:14:29;4.13;;;2.50;;
9424;SDS011;17139;52.140;11.636;2024-02-14T03:17:15;2.47;;;2.37;;
9424;SDS011;17139;52.140;11.636;2024-02-14T03:20:02;2.53;;;2.33;;
9424;SDS011;17139;52.140;11.636;2024-02-14T03:22:48;2.47;;;2.37;;
9424;SDS011;17139;52.140;11.636;2024-02-14T03:25:34;3.50;;;2.60;;
9424;SDS011;17139;52.140;11.636;2024-02-14T03:28:20;3.60;;;3.20;;
9424;SDS011;17139;52.140;11.636;2024-02-14T03:31:09;2.33;;;2.23;;
9424;SDS011;17139;52.140;11.636;2024-02-14T03:33:55;5.40;;;2.60;;
9424;SDS011;17139;52.140;11.636;2024-02-14T03:36:41;2.80;;;2.70;;
9424;SDS011;17139;52.140;11.636;2024-02-14T03:39:27;2.73;;;2.63;;
9424;SDS011;17139;52.140;11.636;2024-02-14T03:42:13;3.80;;;2.23;;
9424;SDS011;17139;52.140;11.636;2024-02-14T03:44:59;4.27;;;2.27;;
9424;SDS011;17139;52.140;11.636;2024-02-14T03:47:47;4.40;;;2.60;;
9424;SDS011;17139;52.140;11.636;2024-02-14T03:50:33;2.47;;;2.33;;
9424;SDS011;17139;52.140;11.636;2024-02-14T03:53:19;2.80;;;2.63;;
9424;SDS011;17139;52.140;11.636;2024-02-14T03:56:06;2.78;;;2.58;;
9424;SDS011;17139;52.140;11.636;2024-02-14T03:58:52;2.30;;;2.20;;
9424;SDS011;17139;52.140;11.636;2024-02-14T04:01:38;2.27;;;2.17;;
9424;SDS011;17139;52.140;11.636;2024-02-14T04:04:30;3.15;;;2.95;;
9424;SDS011;17139;52.140;11.636;2024-02-14T04:07:17;2.83;;;2.63;;
9424;SDS011;17139;52.140;11.636;2024-02-14T04:10:03;2.60;;;2.40;;
9424;SDS011;17139;52.140;11.636;2024-02-14T04:12:50;2.80;;;2.60;;
9424;SDS011;17139;52.140;11.636;2024-02-14T04:15:36;2.80;;;2.60;;
9424;SDS011;17139;52.140;11.636;2024-02-14T04:18:22;3.10;;;2.27;;
9424;SDS011;17139;52.140;11.636;2024-02-14T04:21:09;2.30;;;2.20;;
9424;SDS011;17139;52.140;11.636;2024-02-14T04:23:56;2.40;;;2.30;;
9424;SDS011;17139;52.140;11.636;2024-02-14T04:26:42;3.77;;;2.33;;
9424;SDS011;17139;52.140;11.636;2024-02-14T04:29:28;3.87;;;2.50;;
9424;SDS011;17139;52.140;11.636;2024-02-14T04:32:14;2.87;;;2.77;;
9424;SDS011;17139;52.140;11.636;2024-02-14T04:35:00;3.37;;;2.30;;
9424;SDS011;17139;52.140;11.636;2024-02-14T04:37:48;2.50;;;2.30;;
9424;SDS011;17139;52.140;11.636;2024-02-14T04:40:34;2.23;;;2.13;;
9424;SDS011;17139;52.140;11.636;2024-02-14T04:43:20;5.23;;;2.60;;
9424;SDS011;17139;52.140;11.636;2024-02-14T04:46:06;2.50;;;2.40;;
9424;SDS011;17139;52.140;11.636;2024-02-14T04:48:52;2.70;;;2.50;;
9424;SDS011;17139;52.140;11.636;2024-02-14T04:51:38;2.97;;;2.77;;
9424;SDS011;17139;52.140;11.636;2024-02-14T04:54:26;3.83;;;2.43;;
9424;SDS011;17139;52.140;11.636;2024-02-14T04:57:12;3.00;;;2.78;;
9424;SDS011;17139;52.140;11.636;2024-02-14T04:59:58;3.07;;;2.77;;
9424;SDS011;17139;52.140;11.636;2024-02-14T05:02:44;6.20;;;2.33;;
9424;SDS011;17139;52.140;11.636;2024-02-14T05:05:30;2.30;;;2.20;;
9424;SDS011;17139;52.140;11.636;2024-02-14T05:08:16;2.43;;;2.33;;
9424;SDS011;17139;52.140;11.636;2024-02-14T05:11:04;4.23;;;2.53;;
9424;SDS011;17139;52.140;11.636;2024-02-14T05:13:50;2.70;;;2.50;;
9424;SDS011;17139;52.140;11.636;2024-02-14T05:16:36;3.40;;;2.57;;
9424;SDS011;17139;52.140;11.636;2024-02-14T05:19:22;2.50;;;2.40;;
9424;SDS011;17139;52.140;11.636;2024-02-14T05:22:08;2.93;;;2.63;;
9424;SDS011;17139;52.140;11.636;2024-02-14T05:24:55;2.77;;;2.57;;
9424;SDS011;17139;52.140;11.636;2024-02-14T05:27:42;2.63;;;2.50;;
9424;SDS011;17139;52.140;11.636;2024-02-14T05:30:28;2.30;;;2.20;;
9424;SDS011;17139;52.140;11.636;2024-02-14T05:33:15;3.97;;;3.67;;
9424;SDS011;17139;52.140;11.636;2024-02-14T05:36:01;3.63;;;2.60;;
9424;SDS011;17139;52.140;11.636;2024-02-14T05:38:47;3.42;;;3.13;;
9424;SDS011;17139;52.140;11.636;2024-02-14T05:41:33;3.55;;;3.35;;
9424;SDS011;17139;52.140;11.636;2024-02-14T05:44:21;2.93;;;2.70;;
9424;SDS011;17139;52.140;11.636;2024-02-14T05:47:07;3.03;;;2.73;;
9424;SDS011;17139;52.140;11.636;2024-02-14T05:49:53;2.30;;;2.20;;
9424;SDS011;17139;52.140;11.636;2024-02-14T05:52:39;2.80;;;2.70;;
9424;SDS011;17139;52.140;11.636;2024-02-14T05:55:25;2.43;;;2.33;;
9424;SDS011;17139;52.140;11.636;2024-02-14T05:58:11;2.57;;;2.33;;
9424;SDS011;17139;52.140;11.636;2024-02-14T06:00:59;2.90;;;2.73;;
9424;SDS011;17139;52.140;11.636;2024-02-14T06:03:45;3.93;;;2.70;;
9424;SDS011;17139;52.140;11.636;2024-02-14T06:06:31;4.03;;;3.83;;
9424;SDS011;17139;52.140;11.636;2024-02-14T06:09:17;3.90;;;3.63;;
9424;SDS011;17139;52.140;11.636;2024-02-14T06:12:03;3.07;;;2.77;;
9424;SDS011;17139;52.140;11.636;2024-02-14T06:14:50;2.43;;;2.33;;
9424;SDS011;17139;52.140;11.636;2024-02-14T06:17:38;3.27;;;2.97;;
9424;SDS011;17139;52.140;11.636;2024-02-14T06:20:24;2.50;;;2.30;;
9424;SDS011;17139;52.140;11.636;2024-02-14T06:23:10;2.83;;;2.63;;
9424;SDS011;17139;52.140;11.636;2024-02-14T06:25:56;3.00;;;2.80;;
9424;SDS011;17139;52.140;11.636;2024-02-14T06:28:43;2.43;;;2.23;;
9424;SDS011;17139;52.140;11.636;2024-02-14T06:31:30;2.30;;;2.20;;
9424;SDS011;17139;52.140;11.636;2024-02-14T06:34:17;2.30;;;2.20;;
9424;SDS011;17139;52.140;11.636;2024-02-14T06:37:03;2.30;;;2.20;;
9424;SDS011;17139;52.140;11.636;2024-02-14T06:39:49;2.10;;;2.00;;
9424;SDS011;17139;52.140;11.636;2024-02-14T06:42:36;1.93;;;1.83;;
9424;SDS011;17139;52.140;11.636;2024-02-14T06:45:22;2.27;;;2.00;;
9424;SDS011;17139;52.140;11.636;2024-02-14T06:48:08;2.77;;;1.70;;
9424;SDS011;17139;52.140;11.636;2024-02-14T06:50:55;2.10;;;2.00;;
9424;SDS011;17139;52.140;11.636;2024-02-14T06:53:41;2.33;;;2.22;;
9424;SDS011;17139;52.140;11.636;2024-02-14T06:56:29;1.90;;;1.80;;
9424;SDS011;17139;52.140;11.636;2024-02-14T06:59:15;2.00;;;1.90;;
9424;SDS011;17139;52.140;11.636;2024-02-14T07:02:01;2.67;;;2.47;;
9424;SDS011;17139;52.140;11.636;2024-02-14T07:04:48;2.50;;;2.07;;
9424;SDS011;17139;52.140;11.636;2024-02-14T07:07:36;2.47;;;2.10;;
9424;SDS011;17139;52.140;11.636;2024-02-14T07:10:22;1.87;;;1.77;;
9424;SDS011;17139;52.140;11.636;2024-02-14T07:13:08;2.30;;;2.10;;
9424;SDS011;17139;52.140;11.636;2024-02-14T07:15:54;4.00;;;2.27;;
9424;SDS011;17139;52.140;11.636;2024-02-14T07:18:41;1.90;;;1.80;;
9424;SDS011;17139;52.140;11.636;2024-02-14T07:21:27;1.77;;;1.53;;
9424;SDS011;17139;52.140;11.636;2024-02-14T07:24:15;1.73;;;1.63;;
9424;SDS011;17139;52.140;11.636;2024-02-14T07:27:01;2.33;;;1.97;;
9424;SDS011;17139;52.140;11.636;2024-02-14T07:29:47;3.13;;;2.25;;
9424;SDS011;17139;52.140;11.636;2024-02-14T07:32:33;2.83;;;2.03;;
9424;SDS011;17139;52.140;11.636;2024-02-14T07:35:19;7.53;;;2.23;;
9424;SDS011;17139;52.140;11.636;2024-02-14T07:38:05;3.47;;;2.30;;
9424;SDS011;17139;52.140;11.636;2024-02-14T07:40:53;3.60;;;1.90;;
9424;SDS011;17139;52.140;11.636;2024-02-14T07:43:39;5.23;;;2.27;;
9424;SDS011;17139;52.140;11.636;2024-02-14T07:46:25;2.00;;;1.90;;
9424;SDS011;17139;52.140;11.636;2024-02-14T07:49:11;2.13;;;1.97;;
9424;SDS011;17139;52.140;11.636;2024-02-14T07:51:57;2.40;;;2.23;;
9424;SDS011;17139;52.140;11.636;2024-02-14T07:54:43;2.20;;;2.10;;
9424;SDS011;17139;52.140;11.636;2024-02-14T07:57:31;2.83;;;2.33;;
9424;SDS011;17139;52.140;11.636;2024-02-14T08:00:17;2.43;;;2.33;;
9424;SDS011;17139;52.140;11.636;2024-02-14T08:03:04;1.97;;;1.87;;
9424;SDS011;17139;52.140;11.636;2024-02-14T08:05:50;1.97;;;1.87;;
9424;SDS011;17139;52.140;11.636;2024-02-14T08:08:36;2.13;;;1.90;;
9424;SDS011;17139;52.140;11.636;2024-02-14T08:11:22;3.88;;;2.80;;
9424;SDS011;17139;52.140;11.636;2024-02-14T08:14:09;6.13;;;2.27;;
9424;SDS011;17139;52.140;11.636;2024-02-14T08:16:56;1.97;;;1.87;;
9424;SDS011;17139;52.140;11.636;2024-02-14T08:19:42;3.15;;;2.63;;
9424;SDS011;17139;52.140;11.636;2024-02-14T08:22:28;2.20;;;2.10;;
9424;SDS011;17139;52.140;11.636;2024-02-14T08:25:14;1.97;;;1.87;;
9424;SDS011;17139;52.140;11.636;2024-02-14T08:28:00;2.33;;;2.23;;
9424;SDS011;17139;52.140;11.636;2024-02-14T08:30:48;2.03;;;1.93;;
9424;SDS011;17139;52.140;11.636;2024-02-14T08:33:34;2.23;;;2.10;;
9424;SDS011;17139;52.140;11.636;2024-02-14T08:36:20;2.10;;;1.80;;
9424;SDS011;17139;52.140;11.636;2024-02-14T08:39:06;2.40;;;2.20;;
9424;SDS011;17139;52.140;11.636;2024-02-14T08:41:52;1.70;;;1.67;;
9424;SDS011;17139;52.140;11.636;2024-02-14T08:44:38;4.10;;;1.90;;
9424;SDS011;17139;52.140;11.636;2024-02-14T08:47:26;4.33;;;1.97;;
9424;SDS011;17139;52.140;11.636;2024-02-14T08:50:12;3.00;;;2.00;;
9424;SDS011;17139;52.140;11.636;2024-02-14T08:52:58;2.10;;;2.00;;
9424;SDS011;17139;52.140;11.636;2024-02-14T08:55:44;1.77;;;1.70;;
9424;SDS011;17139;52.140;11.636;2024-02-14T08:58:30;1.98;;;1.88;;
9424;SDS011;17139;52.140;11.636;2024-02-14T09:01:16;1.70;;;1.60;;
9424;SDS011;17139;52.140;11.636;2024-02-14T09:04:04;5.40;;;2.05;;
9424;SDS011;17139;52.140;11.636;2024-02-14T09:06:50;2.30;;;2.10;;
9424;SDS011;17139;52.140;11.636;2024-02-14T09:09:36;2.43;;;1.77;;
9424;SDS011;17139;52.140;11.636;2024-02-14T09:12:22;1.67;;;1.60;;
9424;SDS011;17139;52.140;11.636;2024-02-14T09:15:09;1.60;;;1.40;;
9424;SDS011;17139;52.140;11.636;2024-02-14T09:17:55;2.10;;;1.90;;
9424;SDS011;17139;52.140;11.636;2024-02-14T09:20:42;1.43;;;1.43;;
9424;SDS011;17139;52.140;11.636;2024-02-14T09:23:28;1.70;;;1.63;;
9424;SDS011;17139;52.140;11.636;2024-02-14T09:26:14;1.80;;;1.47;;
9424;SDS011;17139;52.140;11.636;2024-02-14T09:29:01;1.80;;;1.70;;
9424;SDS011;17139;52.140;11.636;2024-02-14T09:31:47;2.40;;;2.20;;
9424;SDS011;17139;52.140;11.636;2024-02-14T09:34:33;5.07;;;1.90;;
9424;SDS011;17139;52.140;11.636;2024-02-14T09:37:21;2.33;;;2.20;;
9424;SDS011;17139;52.140;11.636;2024-02-14T09:40:07;4.30;;;2.03;;
9424;SDS011;17139;52.140;11.636;2024-02-14T09:42:55;4.03;;;2.30;;
9424;SDS011;17139;52.140;11.636;2024-02-14T09:45:42;1.73;;;1.47;;
9424;SDS011;17139;52.140;11.636;2024-02-14T09:48:29;1.73;;;1.63;;
9424;SDS011;17139;52.140;11.636;2024-02-14T09:51:16;2.13;;;1.80;;
9424;SDS011;17139;52.140;11.636;2024-02-14T09:54:03;1.70;;;1.57;;
9424;SDS011;17139;52.140;11.636;2024-02-14T09:56:49;2.30;;;2.10;;
9424;SDS011;17139;52.140;11.636;2024-02-14T09:59:37;2.73;;;1.63;;
9424;SDS011;17139;52.140;11.636;2024-02-14T10:02:24;5.07;;;2.07;;
9424;SDS011;17139;52.140;11.636;2024-02-14T10:05:10;1.57;;;1.47;;
9424;SDS011;17139;52.140;11.636;2024-02-14T10:07:56;1.83;;;1.70;;
9424;SDS011;17139;52.140;11.636;2024-02-14T10:10:44;2.10;;;2.00;;
9424;SDS011;17139;52.140;11.636;2024-02-14T10:13:30;1.83;;;1.73;;
9424;SDS011;17139;52.140;11.636;2024-02-14T10:16:16;3.27;;;1.70;;
9424;SDS011;17139;52.140;11.636;2024-02-14T10:19:02;2.50;;;2.30;;
9424;SDS011;17139;52.140;11.636;2024-02-14T10:21:55;1.57;;;1.47;;
9424;SDS011;17139;52.140;11.636;2024-02-14T10:24:41;1.87;;;1.77;;
9424;SDS011;17139;52.140;11.636;2024-02-14T10:27:29;1.40;;;1.40;;
9424;SDS011;17139;52.140;11.636;2024-02-14T10:30:15;1.50;;;1.40;;
9424;SDS011;17139;52.140;11.636;2024-02-14T10:33:02;1.20;;;1.20;;
9424;SDS011;17139;52.140;11.636;2024-02-14T10:35:49;1.30;;;1.30;;
9424;SDS011;17139;52.140;11.636;2024-02-14T10:38:37;1.53;;;1.40;;
9424;SDS011;17139;52.140;11.636;2024-02-14T10:41:26;1.10;;;1.10;;
9424;SDS011;17139;52.140;11.636;2024-02-14T10:44:15;1.60;;;1.50;;
9424;SDS011;17139;52.140;11.636;2024-02-14T10:47:02;1.27;;;1.17;;
9424;SDS011;17139;52.140;11.636;2024-02-14T10:49:50;1.20;;;1.10;;
9424;SDS011;17139;52.140;11.636;2024-02-14T10:52:37;1.65;;;1.58;;
9424;SDS011;17139;52.140;11.636;2024-02-14T10:55:26;4.00;;;1.77;;
9424;SDS011;17139;52.140;11.636;2024-02-14T10:58:16;1.92;;;1.52;;
9424;SDS011;17139;52.140;11.636;2024-02-14T11:01:04;1.40;;;1.40;;
9424;SDS011;17139;52.140;11.636;2024-02-14T11:03:51;1.43;;;1.43;;
9424;SDS011;17139;52.140;11.636;2024-02-14T11:06:44;1.47;;;1.37;;
9424;SDS011;17139;52.140;11.636;2024-02-14T11:09:35;1.47;;;1.47;;
9424;SDS011;17139;52.140;11.636;2024-02-14T11:12:22;1.57;;;1.30;;
9424;SDS011;17139;52.140;11.636;2024-02-14T11:15:09;2.00;;;1.40;;
9424;SDS011;17139;52.140;11.636;2024-02-14T11:18:04;1.90;;;1.13;;
9424;SDS011;17139;52.140;11.636;2024-02-14T11:20:51;0.90;;;0.90;;
9424;SDS011;17139;52.140;11.636;2024-02-14T11:23:37;1.20;;;1.10;;
9424;SDS011;17139;52.140;11.636;2024-02-14T11:26:24;1.10;;;1.10;;
9424;SDS011;17139;52.140;11.636;2024-02-14T11:29:13;1.50;;;1.23;;
9424;SDS011;17139;52.140;11.636;2024-02-14T11:32:00;1.63;;;1.20;;
9424;SDS011;17139;52.140;11.636;2024-02-14T11:34:54;2.95;;;1.30;;
9424;SDS011;17139;52.140;11.636;2024-02-14T11:37:41;1.00;;;0.93;;
9424;SDS011;17139;52.140;11.636;2024-02-14T11:40:27;1.17;;;1.17;;
9424;SDS011;17139;52.140;11.636;2024-02-14T11:43:14;1.00;;;1.00;;
9424;SDS011;17139;52.140;11.636;2024-02-14T11:46:01;1.00;;;1.00;;
9424;SDS011;17139;52.140;11.636;2024-02-14T11:48:47;1.95;;;1.13;;
9424;SDS011;17139;52.140;11.636;2024-02-14T11:51:35;1.08;;;1.08;;
9424;SDS011;17139;52.140;11.636;2024-02-14T11:54:21;1.37;;;1.30;;
9424;SDS011;17139;52.140;11.636;2024-02-14T11:57:08;1.08;;;1.08;;
9424;SDS011;17139;52.140;11.636;2024-02-14T11:59:55;1.10;;;1.10;;
9424;SDS011;17139;52.140;11.636;2024-02-14T12:02:43;1.08;;;1.08;;
9424;SDS011;17139;52.140;11.636;2024-02-14T12:05:29;1.08;;;1.08;;
9424;SDS011;17139;52.140;11.636;2024-02-14T12:08:17;1.00;;;1.00;;
9424;SDS011;17139;52.140;11.636;2024-02-14T12:11:03;0.90;;;0.90;;
9424;SDS011;17139;52.140;11.636;2024-02-14T12:13:50;1.17;;;1.17;;
9424;SDS011;17139;52.140;11.636;2024-02-14T12:16:37;1.40;;;1.30;;
9424;SDS011;17139;52.140;11.636;2024-02-14T12:19:23;1.50;;;1.40;;
9424;SDS011;17139;52.140;11.636;2024-02-14T12:22:12;1.30;;;1.30;;
9424;SDS011;17139;52.140;11.636;2024-02-14T12:25:00;1.20;;;1.20;;
9424;SDS011;17139;52.140;11.636;2024-02-14T12:27:49;2.28;;;1.50;;
9424;SDS011;17139;52.140;11.636;2024-02-14T12:30:42;1.25;;;1.15;;
9424;SDS011;17139;52.140;11.636;2024-02-14T12:33:29;1.95;;;1.25;;
9424;SDS011;17139;52.140;11.636;2024-02-14T12:36:15;0.95;;;0.95;;
9424;SDS011;17139;52.140;11.636;2024-02-14T12:39:02;1.05;;;1.05;;
9424;SDS011;17139;52.140;11.636;2024-02-14T12:41:49;1.08;;;1.08;;
9424;SDS011;17139;52.140;11.636;2024-02-14T12:44:35;1.27;;;1.27;;
9424;SDS011;17139;52.140;11.636;2024-02-14T12:47:22;1.25;;;1.25;;
9424;SDS011;17139;52.140;11.636;2024-02-14T12:50:08;1.00;;;1.00;;
9424;SDS011;17139;52.140;11.636;2024-02-14T12:52:54;1.27;;;1.27;;
9424;SDS011;17139;52.140;11.636;2024-02-14T12:55:41;1.15;;;1.15;;
9424;SDS011;17139;52.140;11.636;2024-02-14T12:58:28;1.33;;;1.33;;
9424;SDS011;17139;52.140;11.636;2024-02-14T13:01:14;1.15;;;1.15;;
9424;SDS011;17139;52.140;11.636;2024-02-14T13:04:00;1.30;;;1.30;;
9424;SDS011;17139;52.140;11.636;2024-02-14T13:06:46;1.25;;;1.25;;
9424;SDS011;17139;52.140;11.636;2024-02-14T13:09:33;1.45;;;1.45;;
9424;SDS011;17139;52.140;11.636;2024-02-14T13:12:19;3.03;;;1.10;;
9424;SDS011;17139;52.140;11.636;2024-02-14T13:15:06;1.25;;;1.20;;
9424;SDS011;17139;52.140;11.636;2024-02-14T13:17:53;1.40;;;1.38;;
9424;SDS011;17139;52.140;11.636;2024-02-14T13:20:39;1.20;;;1.10;;
9424;SDS011;17139;52.140;11.636;2024-02-14T13:23:25;1.00;;;1.00;;
9424;SDS011;17139;52.140;11.636;2024-02-14T13:26:12;1.00;;;1.00;;
9424;SDS011;17139;52.140;11.636;2024-02-14T13:28:58;1.00;;;1.00;;
9424;SDS011;17139;52.140;11.636;2024-02-14T13:31:45;0.68;;;0.68;;
9424;SDS011;17139;52.140;11.636;2024-02-14T13:34:31;0.82;;;0.82;;
9424;SDS011;17139;52.140;11.636;2024-02-14T13:37:17;0.95;;;0.93;;
9424;SDS011;17139;52.140;11.636;2024-02-14T13:40:04;0.98;;;0.90;;
9424;SDS011;17139;52.140;11.636;2024-02-14T13:42:51;1.20;;;1.20;;
9424;SDS011;17139;52.140;11.636;2024-02-14T13:45:41;1.30;;;1.30;;
9424;SDS011;17139;52.140;11.636;2024-02-14T13:48:29;1.10;;;1.10;;
9424;SDS011;17139;52.140;11.636;2024-02-14T13:51:15;1.08;;;1.08;;
9424;SDS011;17139;52.140;11.636;2024-02-14T13:54:01;1.13;;;1.13;;
9424;SDS011;17139;52.140;11.636;2024-02-14T13:56:47;1.17;;;1.17;;
9424;SDS011;17139;52.140;11.636;2024-02-14T13:59:33;1.00;;;1.00;;
9424;SDS011;17139;52.140;11.636;2024-02-14T14:02:19;1.30;;;1.15;;
9424;SDS011;17139;52.140;11.636;2024-02-14T14:05:07;0.80;;;0.80;;
9424;SDS011;17139;52.140;11.636;2024-02-14T14:07:54;0.93;;;0.93;;
9424;SDS011;17139;52.140;11.636;2024-02-14T14:10:40;0.80;;;0.80;;
9424;SDS011;17139;52.140;11.636;2024-02-14T14:13:26;0.88;;;0.88;;
9424;SDS011;17139;52.140;11.636;2024-02-14T14:16:12;0.77;;;0.77;;
9424;SDS011;17139;52.140;11.636;2024-02-14T14:18:58;0.70;;;0.70;;
9424;SDS011;17139;52.140;11.636;2024-02-14T14:21:46;0.52;;;0.52;;
9424;SDS011;17139;52.140;11.636;2024-02-14T14:24:32;0.80;;;0.80;;
9424;SDS011;17139;52.140;11.636;2024-02-14T14:27:18;0.77;;;0.77;;
9424;SDS011;17139;52.140;11.636;2024-02-14T14:30:04;0.80;;;0.80;;
9424;SDS011;17139;52.140;11.636;2024-02-14T14:32:51;0.85;;;0.85;;
9424;SDS011;17139;52.140;11.636;2024-02-14T14:35:37;0.80;;;0.80;;
9424;SDS011;17139;52.140;11.636;2024-02-14T14:38:25;0.70;;;0.70;;
9424;SDS011;17139;52.140;11.636;2024-02-14T14:41:11;0.70;;;0.70;;
9424;SDS011;17139;52.140;11.636;2024-02-14T14:43:57;0.90;;;0.90;;
9424;SDS011;17139;52.140;11.636;2024-02-14T14:46:43;0.75;;;0.75;;
9424;SDS011;17139;52.140;11.636;2024-02-14T14:49:30;0.70;;;0.70;;
9424;SDS011;17139;52.140;11.636;2024-02-14T14:52:16;0.90;;;0.90;;
9424;SDS011;17139;52.140;11.636;2024-02-14T14:55:03;0.90;;;0.90;;
9424;SDS011;17139;52.140;11.636;2024-02-14T14:57:50;1.83;;;1.00;;
9424;SDS011;17139;52.140;11.636;2024-02-14T15:00:36;1.00;;;0.88;;
9424;SDS011;17139;52.140;11.636;2024-02-14T15:03:22;0.80;;;0.80;;
9424;SDS011;17139;52.140;11.636;2024-02-14T15:06:09;0.90;;;0.90;;
9424;SDS011;17139;52.140;11.636;2024-02-14T15:08:55;0.88;;;0.88;;
9424;SDS011;17139;52.140;11.636;2024-02-14T15:11:42;0.93;;;0.93;;
9424;SDS011;17139;52.140;11.636;2024-02-14T15:14:28;0.80;;;0.80;;
9424;SDS011;17139;52.140;11.636;2024-02-14T15:17:14;0.85;;;0.85;;
9424;SDS011;17139;52.140;11.636;2024-02-14T15:20:01;0.77;;;0.77;;
9424;SDS011;17139;52.140;11.636;2024-02-14T15:22:47;0.60;;;0.60;;
9424;SDS011;17139;52.140;11.636;2024-02-14T15:25:33;0.70;;;0.70;;
9424;SDS011;17139;52.140;11.636;2024-02-14T15:28:21;1.00;;;0.90;;
9424;SDS011;17139;52.140;11.636;2024-02-14T15:31:07;0.90;;;0.90;;
9424;SDS011;17139;52.140;11.636;2024-02-14T15:33:53;1.08;;;1.08;;
9424;SDS011;17139;52.140;11.636;2024-02-14T15:36:39;1.05;;;1.00;;
9424;SDS011;17139;52.140;11.636;2024-02-14T15:39:25;1.48;;;1.00;;
9424;SDS011;17139;52.140;11.636;2024-02-14T15:42:11;1.02;;;1.02;;
9424;SDS011;17139;52.140;11.636;2024-02-14T15:44:59;1.42;;;1.33;;
9424;SDS011;17139;52.140;11.636;2024-02-14T15:47:45;1.30;;;1.30;;
9424;SDS011;17139;52.140;11.636;2024-02-14T15:50:31;1.33;;;1.33;;
9424;SDS011;17139;52.140;11.636;2024-02-14T15:53:18;1.40;;;1.35;;
9424;SDS011;17139;52.140;11.636;2024-02-14T15:56:04;1.33;;;1.33;;
9424;SDS011;17139;52.140;11.636;2024-02-14T15:58:50;1.23;;;1.23;;
9424;SDS011;17139;52.140;11.636;2024-02-14T16:01:38;1.10;;;1.10;;
9424;SDS011;17139;52.140;11.636;2024-02-14T16:04:24;0.98;;;0.90;;
9424;SDS011;17139;52.140;11.636;2024-02-14T16:07:10;1.23;;;1.20;;
9424;SDS011;17139;52.140;11.636;2024-02-14T16:09:56;1.02;;;1.02;;
9424;SDS011;17139;52.140;11.636;2024-02-14T16:12:42;1.00;;;1.00;;
9424;SDS011;17139;52.140;11.636;2024-02-14T16:15:29;1.38;;;1.38;;
9424;SDS011;17139;52.140;11.636;2024-02-14T16:18:17;1.35;;;1.27;;
9424;SDS011;17139;52.140;11.636;2024-02-14T16:21:03;1.48;;;1.48;;
9424;SDS011;17139;52.140;11.636;2024-02-14T16:23:49;1.50;;;1.40;;
9424;SDS011;17139;52.140;11.636;2024-02-14T16:26:35;1.30;;;1.20;;
9424;SDS011;17139;52.140;11.636;2024-02-14T16:29:22;2.30;;;1.38;;
9424;SDS011;17139;52.140;11.636;2024-02-14T16:32:08;1.40;;;1.30;;
9424;SDS011;17139;52.140;11.636;2024-02-14T16:34:55;1.30;;;1.30;;
9424;SDS011;17139;52.140;11.636;2024-02-14T16:37:41;1.20;;;1.20;;
9424;SDS011;17139;52.140;11.636;2024-02-14T16:40:27;1.77;;;1.15;;
9424;SDS011;17139;52.140;11.636;2024-02-14T16:43:14;1.15;;;1.15;;